createdAt,value
2023-02-03T00:04:52.400Z,0.04
2023-02-03T00:14:59.614Z,0.06
2023-02-03T00:25:08.098Z,0.08
2023-02-03T00:35:15.179Z,0.05
2023-02-03T00:45:22.304Z,0.01
2023-02-03T00:55:29.650Z,-0.11
2023-02-03T01:05:36.549Z,-0.15
2023-02-03T01:15:46.990Z,-0.10
2023-02-03T01:25:54.076Z,-0.11
2023-02-03T01:36:03.094Z,-0.23
2023-02-03T01:46:08.555Z,-0.32
2023-02-03T01:56:16.331Z,-0.42
2023-02-03T02:06:23.690Z,-0.59
2023-02-03T02:16:29.714Z,-0.76
2023-02-03T02:27:07.181Z,-0.90
2023-02-03T02:37:12.530Z,-1.07
2023-02-03T02:47:17.983Z,-1.13
2023-02-03T02:57:28.262Z,-1.14
2023-02-03T03:07:35.156Z,-1.29
2023-02-03T03:17:49.269Z,-1.48
2023-02-03T03:28:00.583Z,-1.36
2023-02-03T03:38:10.024Z,-1.11
2023-02-03T03:48:17.943Z,-1.21
2023-02-03T03:58:29.759Z,-1.32
2023-02-03T04:08:36.995Z,-1.42
2023-02-03T04:18:44.320Z,-1.42
2023-02-03T04:28:52.084Z,-1.43
2023-02-03T04:38:59.701Z,-1.43
2023-02-03T04:49:07.077Z,-1.30
2023-02-03T04:59:14.210Z,-1.27
2023-02-03T05:09:20.319Z,-1.36
2023-02-03T05:19:27.653Z,-1.49
2023-02-03T05:29:35.055Z,-1.52
2023-02-03T05:39:42.335Z,-1.50
2023-02-03T05:49:49.603Z,-1.39
2023-02-03T05:59:57.179Z,-1.30
2023-02-03T06:10:04.309Z,-1.26
2023-02-03T06:20:14.276Z,-1.32
2023-02-03T06:30:24.039Z,-1.38
2023-02-03T06:40:31.450Z,-1.38
2023-02-03T06:50:38.630Z,-1.38
2023-02-03T07:00:45.824Z,-1.19
2023-02-03T07:10:54.951Z,-1.05
2023-02-03T07:21:05.500Z,-0.96
2023-02-03T07:31:12.792Z,-0.95
2023-02-03T07:41:19.778Z,-0.91
2023-02-03T07:51:25.599Z,-0.77
2023-02-03T08:01:34.533Z,-0.57
2023-02-03T08:11:41.971Z,-0.40
2023-02-03T08:21:49.088Z,-0.32
2023-02-03T08:31:58.927Z,-0.27
2023-02-03T08:42:05.561Z,-0.23
2023-02-03T08:52:16.856Z,-0.09
2023-02-03T09:02:25.314Z,0.07
2023-02-03T09:12:33.226Z,0.17
2023-02-03T09:22:41.399Z,0.26
2023-02-03T09:32:48.544Z,0.27
2023-02-03T09:43:00.254Z,0.23
2023-02-03T09:53:06.083Z,0.10
2023-02-03T10:03:18.122Z,-0.11
2023-02-03T10:13:32.222Z,-0.22
2023-02-03T10:23:42.522Z,-0.14
2023-02-03T10:33:51.202Z,-0.12
2023-02-03T10:43:59.736Z,-0.18
2023-02-03T10:54:27.317Z,-0.23
2023-02-03T11:04:36.213Z,-0.20
2023-02-03T11:14:45.980Z,-0.02
2023-02-03T11:24:52.110Z,0.12
2023-02-03T11:34:59.139Z,0.25
2023-02-03T11:45:14.775Z,0.39
2023-02-03T11:55:32.354Z,0.51
2023-02-03T12:05:43.989Z,0.46
2023-02-03T12:15:54.928Z,0.53
2023-02-03T12:26:03.813Z,0.70
2023-02-03T12:36:09.141Z,0.87
2023-02-03T12:46:22.370Z,0.95
2023-02-03T12:56:27.204Z,0.91
2023-02-03T13:06:36.553Z,0.78
2023-02-03T13:16:45.253Z,0.72
2023-02-03T13:27:10.607Z,0.68
2023-02-03T13:47:51.428Z,0.72
2023-02-03T13:57:58.359Z,0.75
2023-02-03T14:08:28.897Z,0.79
2023-02-03T14:18:47.150Z,0.79
2023-02-03T14:28:54.060Z,0.83
2023-02-03T14:39:04.803Z,0.88
2023-02-03T14:49:20.941Z,0.92
2023-02-03T14:59:30.581Z,0.95
2023-02-03T15:09:39.456Z,1.01
2023-02-03T15:19:46.444Z,1.14
2023-02-03T15:29:54.525Z,1.34
2023-02-03T15:40:01.038Z,1.57
2023-02-03T15:50:25.613Z,1.74
2023-02-03T16:00:34.501Z,1.90
2023-02-03T16:10:41.923Z,1.95
2023-02-03T16:20:52.846Z,1.99
2023-02-03T16:31:21.153Z,2.06
2023-02-03T16:41:46.001Z,2.16
2023-02-03T16:51:53.163Z,2.25
2023-02-03T17:02:00.518Z,2.32
2023-02-03T17:12:07.183Z,2.36
2023-02-03T17:22:14.542Z,2.29
2023-02-03T17:32:21.521Z,2.22
2023-02-03T18:03:11.140Z,2.14
2023-02-03T18:13:18.513Z,2.09
2023-02-03T18:23:24.698Z,2.01
2023-02-03T18:33:32.074Z,2.01
2023-02-03T18:43:39.339Z,2.12
2023-02-03T18:53:46.958Z,2.21
2023-02-03T19:03:55.223Z,2.24
2023-02-03T19:14:02.415Z,2.17
2023-02-03T19:24:10.199Z,2.05
2023-02-03T19:34:15.875Z,1.91
2023-02-03T19:44:23.365Z,1.79
2023-02-03T19:54:31.125Z,1.79
2023-02-03T20:04:38.229Z,1.86
2023-02-03T20:14:46.278Z,1.95
2023-02-03T20:24:53.033Z,2.01
2023-02-03T20:34:59.642Z,2.06
2023-02-03T20:45:14.453Z,2.09
2023-02-03T20:55:19.285Z,2.10
2023-02-03T21:05:26.285Z,2.13
2023-02-03T21:15:34.042Z,2.14
2023-02-03T21:25:42.176Z,2.14
2023-02-03T21:35:49.658Z,2.10
2023-02-03T21:45:56.964Z,2.11
2023-02-03T21:56:04.937Z,2.20
2023-02-03T22:06:25.128Z,2.24
2023-02-03T22:16:32.270Z,2.18
2023-02-03T22:26:39.468Z,2.09
2023-02-03T22:36:46.616Z,2.08
2023-02-03T22:46:53.656Z,2.10
2023-02-03T22:57:01.793Z,2.24
2023-02-03T23:07:08.815Z,2.32
2023-02-03T23:17:14.549Z,2.38
2023-02-03T23:27:21.736Z,2.42
2023-02-03T23:37:28.802Z,2.44
2023-02-03T23:47:36.292Z,2.44
